Terminal Aerodrome Forecast
Issued by NWS Nashville, TN

Current Version | Previous Version | Text Only | Print | Product List | Glossary On
Versions: 1 2 3 4 5 6 7 8 9 10 11 12 13 14
744
FTUS44 KOHX 280522
TAFCSV
TAF
KCSV 280522Z 2806/2906 23004KT P6SM SCT040 BKN060
     FM280900 21003KT 6SM BR BKN025 OVC050
     FM281500 22006KT 4SM -SHRA BR BKN007 OVC015
     FM282000 24008KT 2SM TSRA OVC015CB
     FM290200 25006KT P6SM OVC025=

USA.gov is the U.S. government's official web portal to all federal, state and local government web resources and services.